sensor_id;sensor_type;location;lat;lon;timestamp;pressure;altitude;pressure_sealevel;temperature;humidity
19600;BME280;9947;57.722;12.012;2023-02-20T00:02:25;100253.69;;;3.27;100.00
19600;BME280;9947;57.722;12.012;2023-02-20T00:04:52;100259.13;;;3.26;100.00
19600;BME280;9947;57.722;12.012;2023-02-20T00:07:26;100258.19;;;3.27;100.00
19600;BME280;9947;57.722;12.012;2023-02-20T00:10:00;100245.41;;;3.16;100.00
19600;BME280;9947;57.722;12.012;2023-02-20T00:12:36;100219.31;;;3.21;100.00
19600;BME280;9947;57.722;12.012;2023-02-20T00:15:03;100213.44;;;3.15;100.00
19600;BME280;9947;57.722;12.012;2023-02-20T00:17:37;100213.28;;;3.18;100.00
19600;BME280;9947;57.722;12.012;2023-02-20T00:20:05;100192.00;;;3.16;100.00
19600;BME280;9947;57.722;12.012;2023-02-20T00:22:40;100180.53;;;3.14;100.00
19600;BME280;9947;57.722;12.012;2023-02-20T00:25:07;100174.25;;;3.15;100.00
19600;BME280;9947;57.722;12.012;2023-02-20T00:27:41;100157.38;;;3.15;100.00
19600;BME280;9947;57.722;12.012;2023-02-20T00:30:12;100148.31;;;3.17;100.00
19600;BME280;9947;57.722;12.012;2023-02-20T00:32:55;100129.88;;;3.13;100.00
19600;BME280;9947;57.722;12.012;2023-02-20T00:35:23;100130.13;;;3.08;100.00
19600;BME280;9947;57.722;12.012;2023-02-20T00:37:59;100123.81;;;3.09;100.00
19600;BME280;9947;57.722;12.012;2023-02-20T00:40:26;100108.75;;;3.08;100.00
19600;BME280;9947;57.722;12.012;2023-02-20T00:43:00;100090.41;;;3.02;100.00
19600;BME280;9947;57.722;12.012;2023-02-20T00:45:27;100084.13;;;3.03;100.00
19600;BME280;9947;57.722;12.012;2023-02-20T00:48:01;100083.84;;;3.07;100.00
19600;BME280;9947;57.722;12.012;2023-02-20T00:50:28;100073.63;;;3.00;100.00
19600;BME280;9947;57.722;12.012;2023-02-20T00:53:02;100058.47;;;3.00;100.00
19600;BME280;9947;57.722;12.012;2023-02-20T00:55:29;100051.50;;;2.98;100.00
19600;BME280;9947;57.722;12.012;2023-02-20T00:58:03;100048.28;;;3.07;100.00
19600;BME280;9947;57.722;12.012;2023-02-20T01:00:31;100032.34;;;3.05;100.00
19600;BME280;9947;57.722;12.012;2023-02-20T01:03:05;100038.56;;;3.06;100.00
19600;BME280;9947;57.722;12.012;2023-02-20T01:05:32;100036.91;;;3.03;100.00
19600;BME280;9947;57.722;12.012;2023-02-20T01:08:07;100029.78;;;3.04;100.00
19600;BME280;9947;57.722;12.012;2023-02-20T01:10:34;100018.06;;;3.06;100.00
19600;BME280;9947;57.722;12.012;2023-02-20T01:13:08;99989.81;;;3.02;100.00
19600;BME280;9947;57.722;12.012;2023-02-20T01:15:41;99983.44;;;3.05;100.00
19600;BME280;9947;57.722;12.012;2023-02-20T01:18:15;99974.28;;;3.09;100.00
19600;BME280;9947;57.722;12.012;2023-02-20T01:20:48;99957.41;;;3.08;100.00
19600;BME280;9947;57.722;12.012;2023-02-20T01:23:22;99945.78;;;3.09;100.00
19600;BME280;9947;57.722;12.012;2023-02-20T01:25:49;99943.97;;;3.10;100.00
19600;BME280;9947;57.722;12.012;2023-02-20T01:28:29;99913.56;;;3.13;100.00
19600;BME280;9947;57.722;12.012;2023-02-20T01:31:03;99905.56;;;3.13;100.00
19600;BME280;9947;57.722;12.012;2023-02-20T01:33:40;99910.00;;;3.12;100.00
19600;BME280;9947;57.722;12.012;2023-02-20T01:36:07;99896.66;;;3.12;100.00
19600;BME280;9947;57.722;12.012;2023-02-20T01:38:42;99874.38;;;3.13;100.00
19600;BME280;9947;57.722;12.012;2023-02-20T01:41:16;99869.72;;;3.17;100.00
19600;BME280;9947;57.722;12.012;2023-02-20T01:43:50;99852.72;;;3.18;100.00
19600;BME280;9947;57.722;12.012;2023-02-20T01:46:45;99839.84;;;3.24;100.00
19600;BME280;9947;57.722;12.012;2023-02-20T01:49:29;99824.69;;;3.25;100.00
19600;BME280;9947;57.722;12.012;2023-02-20T01:52:07;99816.00;;;3.21;100.00
19600;BME280;9947;57.722;12.012;2023-02-20T01:54:38;99802.38;;;3.26;100.00
19600;BME280;9947;57.722;12.012;2023-02-20T01:57:17;99794.16;;;3.29;100.00
19600;BME280;9947;57.722;12.012;2023-02-20T01:59:46;99779.00;;;3.29;100.00
19600;BME280;9947;57.722;12.012;2023-02-20T02:02:32;99772.50;;;3.33;100.00
19600;BME280;9947;57.722;12.012;2023-02-20T02:05:01;99759.16;;;3.33;100.00
19600;BME280;9947;57.722;12.012;2023-02-20T02:07:35;99757.44;;;3.32;100.00
19600;BME280;9947;57.722;12.012;2023-02-20T02:10:06;99741.09;;;3.37;100.00
19600;BME280;9947;57.722;12.012;2023-02-20T02:12:41;99728.34;;;3.42;100.00
19600;BME280;9947;57.722;12.012;2023-02-20T02:15:12;99702.59;;;3.41;100.00
19600;BME280;9947;57.722;12.012;2023-02-20T02:17:59;99697.91;;;3.45;100.00
19600;BME280;9947;57.722;12.012;2023-02-20T02:21:00;99669.16;;;3.48;100.00
19600;BME280;9947;57.722;12.012;2023-02-20T02:33:47;99610.53;;;3.59;100.00
19600;BME280;9947;57.722;12.012;2023-02-20T02:36:42;99610.44;;;3.61;100.00
19600;BME280;9947;57.722;12.012;2023-02-20T02:39:27;99611.28;;;3.61;100.00
19600;BME280;9947;57.722;12.012;2023-02-20T02:42:10;99598.41;;;3.68;100.00
19600;BME280;9947;57.722;12.012;2023-02-20T02:44:51;99582.56;;;3.65;100.00
19600;BME280;9947;57.722;12.012;2023-02-20T02:47:29;99564.19;;;3.73;100.00
19600;BME280;9947;57.722;12.012;2023-02-20T02:50:08;99547.31;;;3.72;100.00
19600;BME280;9947;57.722;12.012;2023-02-20T02:52:45;99541.63;;;3.77;100.00
19600;BME280;9947;57.722;12.012;2023-02-20T02:55:22;99544.09;;;3.80;100.00
19600;BME280;9947;57.722;12.012;2023-02-20T02:57:58;99533.63;;;3.77;100.00
19600;BME280;9947;57.722;12.012;2023-02-20T03:00:27;99522.50;;;3.83;100.00
19600;BME280;9947;57.722;12.012;2023-02-20T03:03:07;99510.22;;;3.81;100.00
19600;BME280;9947;57.722;12.012;2023-02-20T03:05:47;99497.47;;;3.84;100.00
19600;BME280;9947;57.722;12.012;2023-02-20T03:08:29;99485.59;;;3.88;100.00
19600;BME280;9947;57.722;12.012;2023-02-20T03:11:06;99491.53;;;3.93;100.00
19600;BME280;9947;57.722;12.012;2023-02-20T03:13:37;99477.19;;;3.94;100.00
19600;BME280;9947;57.722;12.012;2023-02-20T03:16:34;99447.78;;;3.94;100.00
19600;BME280;9947;57.722;12.012;2023-02-20T03:19:12;99450.13;;;3.99;100.00
19600;BME280;9947;57.722;12.012;2023-02-20T03:21:47;99446.16;;;4.05;100.00
19600;BME280;9947;57.722;12.012;2023-02-20T03:24:18;99437.91;;;4.08;100.00
19600;BME280;9947;57.722;12.012;2023-02-20T03:26:55;99425.41;;;4.08;100.00
19600;BME280;9947;57.722;12.012;2023-02-20T03:29:28;99424.31;;;4.11;100.00
19600;BME280;9947;57.722;12.012;2023-02-20T03:32:06;99408.78;;;4.16;100.00
19600;BME280;9947;57.722;12.012;2023-02-20T03:34:54;99387.22;;;4.19;100.00
19600;BME280;9947;57.722;12.012;2023-02-20T03:37:47;99372.00;;;4.19;100.00
19600;BME280;9947;57.722;12.012;2023-02-20T03:40:34;99356.38;;;4.26;100.00
19600;BME280;9947;57.722;12.012;2023-02-20T03:43:26;99354.66;;;4.25;100.00
19600;BME280;9947;57.722;12.012;2023-02-20T03:45:57;99347.03;;;4.31;100.00
19600;BME280;9947;57.722;12.012;2023-02-20T03:48:42;99353.00;;;4.35;100.00
19600;BME280;9947;57.722;12.012;2023-02-20T03:51:10;99337.69;;;4.37;100.00
19600;BME280;9947;57.722;12.012;2023-02-20T03:53:43;99336.06;;;4.47;100.00
19600;BME280;9947;57.722;12.012;2023-02-20T03:56:23;99335.38;;;4.56;100.00
19600;BME280;9947;57.722;12.012;2023-02-20T03:59:01;99325.06;;;4.63;100.00
19600;BME280;9947;57.722;12.012;2023-02-20T04:01:38;99315.63;;;4.70;100.00
19600;BME280;9947;57.722;12.012;2023-02-20T04:04:11;99313.22;;;4.78;100.00
19600;BME280;9947;57.722;12.012;2023-02-20T04:06:49;99300.34;;;4.83;100.00
19600;BME280;9947;57.722;12.012;2023-02-20T04:09:27;99313.13;;;4.91;100.00
19600;BME280;9947;57.722;12.012;2023-02-20T04:12:07;99295.78;;;4.97;100.00
19600;BME280;9947;57.722;12.012;2023-02-20T04:14:38;99293.09;;;4.97;100.00
19600;BME280;9947;57.722;12.012;2023-02-20T04:17:14;99280.19;;;5.02;100.00
19600;BME280;9947;57.722;12.012;2023-02-20T04:19:42;99278.75;;;5.09;100.00
19600;BME280;9947;57.722;12.012;2023-02-20T04:22:25;99263.41;;;5.11;100.00
19600;BME280;9947;57.722;12.012;2023-02-20T04:24:55;99255.97;;;5.14;100.00
19600;BME280;9947;57.722;12.012;2023-02-20T04:27:31;99251.47;;;5.15;100.00
19600;BME280;9947;57.722;12.012;2023-02-20T04:29:58;99248.66;;;5.16;100.00
19600;BME280;9947;57.722;12.012;2023-02-20T04:32:32;99236.84;;;5.19;100.00
19600;BME280;9947;57.722;12.012;2023-02-20T04:35:06;99235.56;;;5.24;100.00
19600;BME280;9947;57.722;12.012;2023-02-20T04:37:33;99239.69;;;5.29;100.00
19600;BME280;9947;57.722;12.012;2023-02-20T04:40:07;99218.13;;;5.30;100.00
19600;BME280;9947;57.722;12.012;2023-02-20T04:42:42;99213.25;;;5.35;100.00
19600;BME280;9947;57.722;12.012;2023-02-20T04:45:09;99203.63;;;5.33;100.00
19600;BME280;9947;57.722;12.012;2023-02-20T04:47:43;99189.50;;;5.42;100.00
19600;BME280;9947;57.722;12.012;2023-02-20T04:50:19;99191.56;;;5.38;100.00
19600;BME280;9947;57.722;12.012;2023-02-20T04:52:53;99193.75;;;5.44;100.00
19600;BME280;9947;57.722;12.012;2023-02-20T04:55:20;99194.00;;;5.41;100.00
19600;BME280;9947;57.722;12.012;2023-02-20T04:57:55;99184.72;;;5.45;100.00
19600;BME280;9947;57.722;12.012;2023-02-20T05:00:24;99194.72;;;5.43;100.00
19600;BME280;9947;57.722;12.012;2023-02-20T05:02:58;99186.56;;;5.45;100.00
19600;BME280;9947;57.722;12.012;2023-02-20T05:05:31;99180.34;;;5.44;100.00
19600;BME280;9947;57.722;12.012;2023-02-20T05:08:06;99177.34;;;5.49;100.00
19600;BME280;9947;57.722;12.012;2023-02-20T05:10:34;99167.59;;;5.48;100.00
19600;BME280;9947;57.722;12.012;2023-02-20T05:13:12;99170.34;;;5.46;100.00
19600;BME280;9947;57.722;12.012;2023-02-20T05:15:39;99162.31;;;5.46;100.00
19600;BME280;9947;57.722;12.012;2023-02-20T05:18:13;99156.09;;;5.46;100.00
19600;BME280;9947;57.722;12.012;2023-02-20T05:20:49;99141.38;;;5.51;100.00
19600;BME280;9947;57.722;12.012;2023-02-20T05:23:45;99131.50;;;5.52;100.00
19600;BME280;9947;57.722;12.012;2023-02-20T05:26:16;99127.13;;;5.51;100.00
19600;BME280;9947;57.722;12.012;2023-02-20T05:28:57;99108.38;;;5.51;100.00
19600;BME280;9947;57.722;12.012;2023-02-20T05:31:31;99100.66;;;5.57;100.00
19600;BME280;9947;57.722;12.012;2023-02-20T05:34:05;99091.66;;;5.58;100.00
19600;BME280;9947;57.722;12.012;2023-02-20T05:36:38;99093.22;;;5.61;100.00
19600;BME280;9947;57.722;12.012;2023-02-20T05:39:05;99095.19;;;5.59;100.00
19600;BME280;9947;57.722;12.012;2023-02-20T05:41:39;99106.88;;;5.58;100.00
19600;BME280;9947;57.722;12.012;2023-02-20T05:44:17;99082.63;;;5.60;100.00
19600;BME280;9947;57.722;12.012;2023-02-20T05:46:44;99074.19;;;5.64;100.00
19600;BME280;9947;57.722;12.012;2023-02-20T05:49:20;99072.50;;;5.63;100.00
19600;BME280;9947;57.722;12.012;2023-02-20T05:51:47;99069.81;;;5.63;100.00
19600;BME280;9947;57.722;12.012;2023-02-20T05:54:22;99058.00;;;5.66;100.00
19600;BME280;9947;57.722;12.012;2023-02-20T05:56:55;99069.56;;;5.66;100.00
19600;BME280;9947;57.722;12.012;2023-02-20T05:59:30;99062.63;;;5.64;100.00
19600;BME280;9947;57.722;12.012;2023-02-20T06:01:58;99063.34;;;5.66;100.00
19600;BME280;9947;57.722;12.012;2023-02-20T06:04:33;99057.41;;;5.62;100.00
19600;BME280;9947;57.722;12.012;2023-02-20T06:07:07;99050.34;;;5.61;100.00
19600;BME280;9947;57.722;12.012;2023-02-20T06:09:34;99055.69;;;5.61;100.00
19600;BME280;9947;57.722;12.012;2023-02-20T06:12:09;99035.09;;;5.62;100.00
19600;BME280;9947;57.722;12.012;2023-02-20T06:14:37;99036.94;;;5.61;100.00
19600;BME280;9947;57.722;12.012;2023-02-20T06:17:18;99021.84;;;5.60;100.00
19600;BME280;9947;57.722;12.012;2023-02-20T06:19:45;99039.75;;;5.60;100.00
19600;BME280;9947;57.722;12.012;2023-02-20T06:22:20;99023.78;;;5.58;100.00
19600;BME280;9947;57.722;12.012;2023-02-20T06:24:47;99021.84;;;5.60;100.00
19600;BME280;9947;57.722;12.012;2023-02-20T06:27:21;99028.63;;;5.64;100.00
19600;BME280;9947;57.722;12.012;2023-02-20T06:29:49;99022.28;;;5.65;100.00
19600;BME280;9947;57.722;12.012;2023-02-20T06:32:23;99009.22;;;5.72;100.00
19600;BME280;9947;57.722;12.012;2023-02-20T06:34:50;99000.81;;;5.76;100.00
19600;BME280;9947;57.722;12.012;2023-02-20T06:37:30;98993.22;;;5.81;100.00
19600;BME280;9947;57.722;12.012;2023-02-20T06:40:03;98984.19;;;5.82;100.00
19600;BME280;9947;57.722;12.012;2023-02-20T06:42:37;98970.47;;;5.97;100.00
19600;BME280;9947;57.722;12.012;2023-02-20T06:45:06;98972.31;;;5.96;100.00
19600;BME280;9947;57.722;12.012;2023-02-20T06:47:39;98959.75;;;5.97;100.00
19600;BME280;9947;57.722;12.012;2023-02-20T06:50:06;98963.63;;;6.04;100.00
19600;BME280;9947;57.722;12.012;2023-02-20T06:52:40;98961.78;;;6.04;100.00
19600;BME280;9947;57.722;12.012;2023-02-20T06:55:09;98952.31;;;6.00;100.00
19600;BME280;9947;57.722;12.012;2023-02-20T06:57:42;98953.75;;;6.04;100.00
19600;BME280;9947;57.722;12.012;2023-02-20T07:00:15;98925.97;;;6.15;100.00
19600;BME280;9947;57.722;12.012;2023-02-20T07:02:48;98939.38;;;6.15;100.00
19600;BME280;9947;57.722;12.012;2023-02-20T07:05:15;98942.91;;;6.15;100.00
19600;BME280;9947;57.722;12.012;2023-02-20T07:07:49;98922.88;;;6.19;100.00
19600;BME280;9947;57.722;12.012;2023-02-20T07:10:24;98924.59;;;6.21;100.00
19600;BME280;9947;57.722;12.012;2023-02-20T07:12:58;98923.47;;;6.23;100.00
19600;BME280;9947;57.722;12.012;2023-02-20T07:15:26;98914.56;;;6.23;100.00
19600;BME280;9947;57.722;12.012;2023-02-20T07:18:03;98914.44;;;6.24;100.00
19600;BME280;9947;57.722;12.012;2023-02-20T07:20:30;98902.25;;;6.20;100.00
19600;BME280;9947;57.722;12.012;2023-02-20T07:23:04;98911.88;;;6.23;100.00
19600;BME280;9947;57.722;12.012;2023-02-20T07:25:31;98909.81;;;6.26;100.00
19600;BME280;9947;57.722;12.012;2023-02-20T07:28:04;98910.66;;;6.27;100.00
19600;BME280;9947;57.722;12.012;2023-02-20T07:30:40;98900.34;;;6.32;100.00
19600;BME280;9947;57.722;12.012;2023-02-20T07:33:13;98927.50;;;6.38;100.00
19600;BME280;9947;57.722;12.012;2023-02-20T07:35:43;98936.56;;;6.47;100.00
19600;BME280;9947;57.722;12.012;2023-02-20T07:38:17;98920.91;;;6.52;100.00
19600;BME280;9947;57.722;12.012;2023-02-20T07:40:50;98928.56;;;6.57;100.00
19600;BME280;9947;57.722;12.012;2023-02-20T07:43:24;98912.75;;;6.63;100.00
19600;BME280;9947;57.722;12.012;2023-02-20T07:45:59;98925.59;;;6.60;100.00
19600;BME280;9947;57.722;12.012;2023-02-20T07:48:28;98933.50;;;6.61;100.00
19600;BME280;9947;57.722;12.012;2023-02-20T07:51:01;98939.19;;;6.68;100.00
19600;BME280;9947;57.722;12.012;2023-02-20T07:53:35;98932.25;;;6.65;100.00
19600;BME280;9947;57.722;12.012;2023-02-20T07:56:08;98929.00;;;6.62;100.00
19600;BME280;9947;57.722;12.012;2023-02-20T07:58:41;98924.19;;;6.65;100.00
19600;BME280;9947;57.722;12.012;2023-02-20T08:01:17;98939.19;;;6.68;100.00
19600;BME280;9947;57.722;12.012;2023-02-20T08:03:47;98940.88;;;6.69;100.00
19600;BME280;9947;57.722;12.012;2023-02-20T08:06:20;98935.56;;;6.78;100.00
19600;BME280;9947;57.722;12.012;2023-02-20T08:08:47;98929.44;;;6.76;100.00
19600;BME280;9947;57.722;12.012;2023-02-20T08:11:22;98914.22;;;6.87;100.00
19600;BME280;9947;57.722;12.012;2023-02-20T08:13:49;98910.41;;;6.89;100.00
19600;BME280;9947;57.722;12.012;2023-02-20T08:16:25;98911.09;;;6.91;100.00
19600;BME280;9947;57.722;12.012;2023-02-20T08:19:06;98916.50;;;7.01;100.00
19600;BME280;9947;57.722;12.012;2023-02-20T08:21:39;98922.13;;;6.98;100.00
19600;BME280;9947;57.722;12.012;2023-02-20T08:24:09;98911.25;;;6.99;100.00
19600;BME280;9947;57.722;12.012;2023-02-20T08:26:43;98886.78;;;7.02;100.00
19600;BME280;9947;57.722;12.012;2023-02-20T08:29:10;98900.22;;;7.02;100.00
19600;BME280;9947;57.722;12.012;2023-02-20T08:31:48;98885.84;;;7.03;100.00
19600;BME280;9947;57.722;12.012;2023-02-20T08:34:24;98886.78;;;7.02;100.00
19600;BME280;9947;57.722;12.012;2023-02-20T08:36:59;98877.31;;;6.98;100.00
19600;BME280;9947;57.722;12.012;2023-02-20T08:39:26;98883.28;;;7.11;100.00
19600;BME280;9947;57.722;12.012;2023-02-20T08:42:00;98885.13;;;7.11;100.00
19600;BME280;9947;57.722;12.012;2023-02-20T08:44:33;98860.38;;;7.07;100.00
19600;BME280;9947;57.722;12.012;2023-02-20T08:47:08;98895.72;;;7.13;100.00
19600;BME280;9947;57.722;12.012;2023-02-20T08:49:35;98886.09;;;7.20;100.00
19600;BME280;9947;57.722;12.012;2023-02-20T08:52:08;98886.81;;;7.22;100.00
19600;BME280;9947;57.722;12.012;2023-02-20T08:54:35;98883.69;;;7.26;100.00
19600;BME280;9947;57.722;12.012;2023-02-20T08:57:08;98884.41;;;7.28;100.00
19600;BME280;9947;57.722;12.012;2023-02-20T08:59:35;98877.75;;;7.23;100.00
19600;BME280;9947;57.722;12.012;2023-02-20T09:02:17;98878.16;;;7.28;100.00
19600;BME280;9947;57.722;12.012;2023-02-20T09:05:00;98862.91;;;7.28;100.00
19600;BME280;9947;57.722;12.012;2023-02-20T09:07:40;98874.53;;;7.29;100.00
19600;BME280;9947;57.722;12.012;2023-02-20T09:10:08;98883.53;;;7.28;100.00
19600;BME280;9947;57.722;12.012;2023-02-20T09:12:41;98882.44;;;7.30;100.00
19600;BME280;9947;57.722;12.012;2023-02-20T09:15:08;98897.84;;;7.28;100.00
19600;BME280;9947;57.722;12.012;2023-02-20T09:17:44;98874.78;;;7.26;100.00
19600;BME280;9947;57.722;12.012;2023-02-20T09:20:14;98859.34;;;7.28;100.00
19600;BME280;9947;57.722;12.012;2023-02-20T09:22:47;98862.78;;;7.30;100.00
19600;BME280;9947;57.722;12.012;2023-02-20T09:25:21;98847.91;;;7.26;100.00
19600;BME280;9947;57.722;12.012;2023-02-20T09:27:54;98872.94;;;7.26;100.00
19600;BME280;9947;57.722;12.012;2023-02-20T09:30:21;98863.47;;;7.22;100.00
19600;BME280;9947;57.722;12.012;2023-02-20T09:32:57;98871.94;;;7.27;100.00
19600;BME280;9947;57.722;12.012;2023-02-20T09:35:26;98885.38;;;7.27;100.00
19600;BME280;9947;57.722;12.012;2023-02-20T09:38:01;98868.56;;;7.25;100.00
19600;BME280;9947;57.722;12.012;2023-02-20T09:40:34;98883.97;;;7.23;100.00
19600;BME280;9947;57.722;12.012;2023-02-20T09:43:20;98890.66;;;7.29;100.00
19600;BME280;9947;57.722;12.012;2023-02-20T09:46:00;98875.34;;;7.20;100.00
19600;BME280;9947;57.722;12.012;2023-02-20T09:48:39;98887.81;;;7.21;100.00
19600;BME280;9947;57.722;12.012;2023-02-20T09:51:17;98888.50;;;7.23;100.00
19600;BME280;9947;57.722;12.012;2023-02-20T09:53:55;98900.81;;;7.35;100.00
19600;BME280;9947;57.722;12.012;2023-02-20T09:56:25;98915.69;;;7.29;100.00
19600;BME280;9947;57.722;12.012;2023-02-20T09:59:05;98915.53;;;7.31;100.00
19600;BME280;9947;57.722;12.012;2023-02-20T10:01:34;98909.75;;;7.35;100.00
19600;BME280;9947;57.722;12.012;2023-02-20T10:04:22;98922.91;;;7.38;100.00
19600;BME280;9947;57.722;12.012;2023-02-20T10:06:52;98923.03;;;7.37;100.00
19600;BME280;9947;57.722;12.012;2023-02-20T10:09:28;98915.94;;;7.46;100.00
19600;BME280;9947;57.722;12.012;2023-02-20T10:12:02;98932.50;;;7.41;100.00
19600;BME280;9947;57.722;12.012;2023-02-20T10:14:54;98926.56;;;7.47;100.00
19600;BME280;9947;57.722;12.012;2023-02-20T10:17:37;98935.19;;;7.51;100.00
19600;BME280;9947;57.722;12.012;2023-02-20T10:20:19;98933.19;;;7.53;100.00
19600;BME280;9947;57.722;12.012;2023-02-20T10:23:13;98923.72;;;7.49;100.00
19600;BME280;9947;57.722;12.012;2023-02-20T10:25:57;98941.84;;;7.47;100.00
19600;BME280;9947;57.722;12.012;2023-02-20T10:28:47;98947.22;;;7.47;100.00
19600;BME280;9947;57.722;12.012;2023-02-20T10:31:27;98928.97;;;7.50;100.00
19600;BME280;9947;57.722;12.012;2023-02-20T10:34:08;98942.00;;;7.45;100.00
19600;BME280;9947;57.722;12.012;2023-02-20T10:36:41;98944.41;;;7.38;100.00
19600;BME280;9947;57.722;12.012;2023-02-20T10:39:18;98951.03;;;7.44;100.00
19600;BME280;9947;57.722;12.012;2023-02-20T10:41:57;98954.59;;;7.45;100.00
19600;BME280;9947;57.722;12.012;2023-02-20T10:44:28;98935.34;;;7.30;100.00
19600;BME280;9947;57.722;12.012;2023-02-20T10:47:06;98949.34;;;7.33;100.00
19600;BME280;9947;57.722;12.012;2023-02-20T10:49:40;98939.03;;;7.29;100.00
19600;BME280;9947;57.722;12.012;2023-02-20T10:52:20;98928.41;;;7.37;100.00
19600;BME280;9947;57.722;12.012;2023-02-20T10:55:02;98928.28;;;7.29;100.00
19600;BME280;9947;57.722;12.012;2023-02-20T10:57:41;98945.25;;;7.29;100.00
19600;BME280;9947;57.722;12.012;2023-02-20T11:00:14;98949.47;;;7.22;100.00
19600;BME280;9947;57.722;12.012;2023-02-20T11:02:53;98951.72;;;7.17;100.00
19600;BME280;9947;57.722;12.012;2023-02-20T11:05:24;98963.47;;;7.16;100.00
19600;BME280;9947;57.722;12.012;2023-02-20T11:08:01;98976.91;;;7.16;100.00
19600;BME280;9947;57.722;12.012;2023-02-20T11:10:27;98960.22;;;7.13;100.00
19600;BME280;9947;57.722;12.012;2023-02-20T11:13:03;98981.00;;;7.20;100.00
19600;BME280;9947;57.722;12.012;2023-02-20T11:15:44;98981.16;;;7.28;100.00
19600;BME280;9947;57.722;12.012;2023-02-20T11:18:23;98982.28;;;7.26;100.00
19600;BME280;9947;57.722;12.012;2023-02-20T11:20:56;98977.06;;;7.24;100.00
19600;BME280;9947;57.722;12.012;2023-02-20T11:23:40;98982.59;;;7.32;100.00
19600;BME280;9947;57.722;12.012;2023-02-20T11:26:23;98976.38;;;7.32;100.00
19600;BME280;9947;57.722;12.012;2023-02-20T11:29:01;98980.63;;;7.34;100.00
19600;BME280;9947;57.722;12.012;2023-02-20T11:31:31;98981.03;;;7.39;100.00
19600;BME280;9947;57.722;12.012;2023-02-20T11:34:14;98974.09;;;7.27;100.00
19600;BME280;9947;57.722;12.012;2023-02-20T11:36:44;98995.34;;;7.30;100.00
19600;BME280;9947;57.722;12.012;2023-02-20T11:39:23;98975.09;;;7.36;100.00
19600;BME280;9947;57.722;12.012;2023-02-20T11:42:05;98969.44;;;7.39;100.00
19600;BME280;9947;57.722;12.012;2023-02-20T11:44:32;98958.94;;;7.26;100.00
19600;BME280;9947;57.722;12.012;2023-02-20T11:47:16;98918.91;;;7.23;100.00
19600;BME280;9947;57.722;12.012;2023-02-20T11:49:44;98899.13;;;7.34;100.00
19600;BME280;9947;57.722;12.012;2023-02-20T11:52:18;98910.44;;;7.18;100.00
19600;BME280;9947;57.722;12.012;2023-02-20T11:55:11;98934.03;;;7.24;100.00
19600;BME280;9947;57.722;12.012;2023-02-20T11:57:50;98930.81;;;7.21;100.00
19600;BME280;9947;57.722;12.012;2023-02-20T12:00:22;98968.13;;;7.24;100.00
19600;BME280;9947;57.722;12.012;2023-02-20T12:03:03;98965.72;;;7.21;100.00
19600;BME280;9947;57.722;12.012;2023-02-20T12:05:40;98981.84;;;7.21;100.00
19600;BME280;9947;57.722;12.012;2023-02-20T12:08:33;98975.78;;;7.19;100.00
19600;BME280;9947;57.722;12.012;2023-02-20T12:11:12;98980.88;;;7.22;100.00
19600;BME280;9947;57.722;12.012;2023-02-20T12:13:48;98984.25;;;7.24;100.00
19600;BME280;9947;57.722;12.012;2023-02-20T12:16:30;99015.50;;;7.15;100.00
19600;BME280;9947;57.722;12.012;2023-02-20T12:19:18;99003.22;;;7.13;100.00
19600;BME280;9947;57.722;12.012;2023-02-20T12:22:03;98999.53;;;7.14;100.00
19600;BME280;9947;57.722;12.012;2023-02-20T12:24:46;99020.03;;;7.15;100.00
19600;BME280;9947;57.722;12.012;2023-02-20T12:27:34;99019.06;;;7.16;100.00
19600;BME280;9947;57.722;12.012;2023-02-20T12:30:16;99010.13;;;7.05;100.00
19600;BME280;9947;57.722;12.012;2023-02-20T12:33:00;99004.63;;;7.07;100.00
19600;BME280;9947;57.722;12.012;2023-02-20T12:35:33;98996.94;;;7.02;100.00
19600;BME280;9947;57.722;12.012;2023-02-20T12:38:30;99001.34;;;7.03;100.00
19600;BME280;9947;57.722;12.012;2023-02-20T12:41:26;98995.97;;;7.03;100.00
19600;BME280;9947;57.722;12.012;2023-02-20T12:44:13;99002.06;;;7.05;100.00
19600;BME280;9947;57.722;12.012;2023-02-20T12:47:00;99006.97;;;7.00;100.00
19600;BME280;9947;57.722;12.012;2023-02-20T12:49:43;99015.75;;;7.02;100.00
19600;BME280;9947;57.722;12.012;2023-02-20T12:52:43;99019.56;;;7.00;100.00
19600;BME280;9947;57.722;12.012;2023-02-20T12:55:21;98997.50;;;6.96;100.00
19600;BME280;9947;57.722;12.012;2023-02-20T12:58:11;98998.50;;;6.95;100.00
19600;BME280;9947;57.722;12.012;2023-02-20T13:00:51;99033.97;;;6.89;100.00
19600;BME280;9947;57.722;12.012;2023-02-20T13:06:26;99057.88;;;6.92;100.00
19600;BME280;9947;57.722;12.012;2023-02-20T13:09:02;99069.91;;;6.98;100.00
19600;BME280;9947;57.722;12.012;2023-02-20T13:11:40;99067.97;;;7.09;100.00
19600;BME280;9947;57.722;12.012;2023-02-20T13:14:19;99065.84;;;7.03;100.00
19600;BME280;9947;57.722;12.012;2023-02-20T13:17:06;99061.31;;;7.04;100.00
19600;BME280;9947;57.722;12.012;2023-02-20T13:19:38;99067.13;;;7.09;100.00
19600;BME280;9947;57.722;12.012;2023-02-20T13:22:14;99050.38;;;6.96;100.00
19600;BME280;9947;57.722;12.012;2023-02-20T13:24:42;99048.09;;;6.91;100.00
19600;BME280;9947;57.722;12.012;2023-02-20T13:27:27;99060.41;;;6.94;100.00
19600;BME280;9947;57.722;12.012;2023-02-20T13:29:56;99060.00;;;6.98;100.00
19600;BME280;9947;57.722;12.012;2023-02-20T13:32:32;99055.75;;;6.96;100.00
19600;BME280;9947;57.722;12.012;2023-02-20T13:38:16;99081.31;;;6.90;100.00
19600;BME280;9947;57.722;12.012;2023-02-20T13:41:02;99069.72;;;6.90;100.00
19600;BME280;9947;57.722;12.012;2023-02-20T13:43:43;99051.06;;;6.88;100.00
19600;BME280;9947;57.722;12.012;2023-02-20T13:46:16;99058.97;;;6.90;100.00
19600;BME280;9947;57.722;12.012;2023-02-20T13:48:56;99072.69;;;6.87;100.00
19600;BME280;9947;57.722;12.012;2023-02-20T13:51:36;99065.63;;;6.86;100.00
19600;BME280;9947;57.722;12.012;2023-02-20T13:54:22;99062.50;;;6.80;100.00
19600;BME280;9947;57.722;12.012;2023-02-20T13:56:58;99054.94;;;6.74;100.00
19600;BME280;9947;57.722;12.012;2023-02-20T13:59:29;99040.94;;;6.71;100.00
19600;BME280;9947;57.722;12.012;2023-02-20T14:02:16;99039.50;;;6.67;100.00